Terminal Aerodrome Forecast
Issued by NWS Mt. Holly, NJ

Home | Current Version | Previous Version | Text Only | Print | Product List | Glossary On
Versions: 1 2 3 4 5 6 7 8 9 10 11 12 13 14
989
FTUS41 KPHI 240530
TAFTTN
TAF
KTTN 240530Z 2406/2506 30004KT P6SM FEW250
     FM240800 VRB03KT P6SM FEW250
     FM241600 30007KT P6SM SCT250
     FM250000 20005KT P6SM SCT250=

USA.gov is the U.S. government's official web portal to all federal, state and local government web resources and services.